Aviation Digital Data Service (ADDS)

Output produced by METARs form (0523 UTC 24 September 2018)
found at http://www.aviationweather.gov/metar/data/
 
KCHA 240453Z 03006KT 10SM FEW120 23/20 A3007 RMK AO2 SLP173 T02330200 403170217
KCHA 240520Z 2406/2506 VRB03KT P6SM SCT080 BKN120 
     FM241400 15006KT P6SM VCSH BKN025 
     FM241800 14008KT P6SM VCTS SCT030CB BKN080 
     FM250200 13005KT P6SM VCTS BKN040CB